createdAt,value
2023-06-03T00:00:16.314Z,64.68
2023-06-03T00:02:45.731Z,64.26
2023-06-03T00:05:12.642Z,64.35
2023-06-03T00:07:39.302Z,63.93
2023-06-03T00:10:06.138Z,64.19
2023-06-03T00:12:32.731Z,64.40
2023-06-03T00:14:59.737Z,64.28
2023-06-03T00:17:29.012Z,64.13
2023-06-03T00:19:55.971Z,64.27
2023-06-03T00:22:23.151Z,64.66
2023-06-03T00:24:50.409Z,64.60
2023-06-03T00:27:17.531Z,64.92
2023-06-03T00:29:44.857Z,65.29
2023-06-03T00:32:11.983Z,65.59
2023-06-03T00:34:39.149Z,65.83
2023-06-03T00:37:05.919Z,65.95
2023-06-03T00:39:32.565Z,65.97
2023-06-03T00:41:59.517Z,66.10
2023-06-03T00:44:27.304Z,66.17
2023-06-03T00:46:54.177Z,66.13
2023-06-03T00:49:21.392Z,66.55
2023-06-03T00:51:48.849Z,66.48
2023-06-03T00:54:17.274Z,66.94
2023-06-03T00:56:46.142Z,66.97
2023-06-03T00:59:16.480Z,66.80
2023-06-03T01:01:46.862Z,67.04
2023-06-03T01:04:19.875Z,67.46
2023-06-03T01:07:21.857Z,67.88
2023-06-03T01:09:57.827Z,68.58
2023-06-03T01:12:51.758Z,68.64
2023-06-03T01:15:27.546Z,68.90
2023-06-03T01:17:59.414Z,69.32
2023-06-03T01:20:29.725Z,69.00
2023-06-03T01:23:21.821Z,69.36
2023-06-03T01:25:52.325Z,69.84
2023-06-03T01:28:21.811Z,69.86
2023-06-03T01:30:49.530Z,69.93
2023-06-03T01:33:18.305Z,70.10
2023-06-03T01:35:46.419Z,70.04
2023-06-03T01:38:13.506Z,70.39
2023-06-03T01:40:41.307Z,70.84
2023-06-03T01:43:09.874Z,71.13
2023-06-03T01:45:36.776Z,71.37
2023-06-03T01:48:03.991Z,71.48
2023-06-03T01:50:31.072Z,71.52
2023-06-03T01:52:58.223Z,71.38
2023-06-03T01:55:25.057Z,71.12
2023-06-03T01:57:51.818Z,70.96
2023-06-03T02:00:18.809Z,71.50
2023-06-03T02:02:46.003Z,71.32
2023-06-03T02:05:12.857Z,71.15
2023-06-03T02:07:39.430Z,71.64
2023-06-03T02:10:06.830Z,70.63
2023-06-03T02:12:33.877Z,70.71
2023-06-03T02:15:01.082Z,70.98
2023-06-03T02:17:28.519Z,70.69
2023-06-03T02:19:56.454Z,70.74
2023-06-03T02:22:27.529Z,70.51
2023-06-03T02:24:58.986Z,70.95
2023-06-03T02:27:29.404Z,70.92
2023-06-03T02:29:56.198Z,71.36
2023-06-03T02:32:23.107Z,71.67
2023-06-03T02:34:51.714Z,72.06
2023-06-03T02:37:18.765Z,72.03
2023-06-03T02:39:46.084Z,71.67
2023-06-03T02:42:13.001Z,71.44
2023-06-03T02:44:39.962Z,71.67
2023-06-03T02:47:07.366Z,72.07
2023-06-03T02:49:34.464Z,71.60
2023-06-03T02:52:01.169Z,71.93
2023-06-03T02:54:27.759Z,72.17
2023-06-03T02:56:55.847Z,72.43
2023-06-03T02:59:22.623Z,72.84
2023-06-03T03:01:49.452Z,72.38
2023-06-03T03:04:18.998Z,72.30
2023-06-03T03:06:45.763Z,72.62
2023-06-03T03:09:12.583Z,72.55
2023-06-03T03:11:39.467Z,72.52
2023-06-03T03:14:07.465Z,72.27
2023-06-03T03:16:34.798Z,72.86
2023-06-03T03:19:01.801Z,72.53
2023-06-03T03:21:28.752Z,73.46
2023-06-03T03:23:55.679Z,72.97
2023-06-03T03:26:23.254Z,73.25
2023-06-03T03:28:50.545Z,73.21
2023-06-03T03:31:17.862Z,73.11
2023-06-03T03:33:44.741Z,72.78
2023-06-03T03:36:13.592Z,73.08
2023-06-03T03:38:40.299Z,73.16
2023-06-03T03:41:07.819Z,73.64
2023-06-03T03:43:36.103Z,73.23
2023-06-03T03:46:03.121Z,73.30
2023-06-03T03:48:31.790Z,72.92
2023-06-03T03:50:59.237Z,72.99
2023-06-03T03:53:32.777Z,73.32
2023-06-03T03:56:00.777Z,73.44
2023-06-03T03:58:28.161Z,73.51
2023-06-03T04:01:01.866Z,73.35
2023-06-03T04:03:31.661Z,73.10
2023-06-03T04:05:58.780Z,72.73
2023-06-03T04:08:29.463Z,72.79
2023-06-03T04:10:59.868Z,73.12
2023-06-03T04:13:26.785Z,72.90
2023-06-03T04:15:53.791Z,72.54
2023-06-03T04:18:21.336Z,72.55
2023-06-03T04:20:50.181Z,72.25
2023-06-03T04:23:21.423Z,72.04
2023-06-03T04:25:50.859Z,72.59
2023-06-03T04:28:17.907Z,72.13
2023-06-03T04:30:45.437Z,71.77
2023-06-03T04:33:12.509Z,71.52
2023-06-03T04:35:39.945Z,71.64
2023-06-03T04:38:07.560Z,71.50
2023-06-03T04:40:35.229Z,71.18
2023-06-03T04:43:05.102Z,72.68
2023-06-03T04:45:33.492Z,72.80
2023-06-03T04:48:03.695Z,72.31
2023-06-03T04:50:37.186Z,72.59
2023-06-03T04:53:04.384Z,72.18
2023-06-03T04:55:33.067Z,71.19
2023-06-03T04:58:02.996Z,70.31
2023-06-03T05:00:30.603Z,70.47
2023-06-03T05:02:58.368Z,70.23
2023-06-03T05:05:27.374Z,69.58
2023-06-03T05:07:56.750Z,68.11
2023-06-03T05:10:23.477Z,67.03
2023-06-03T05:12:50.567Z,67.28
2023-06-03T05:15:18.859Z,64.26
2023-06-03T05:17:46.179Z,64.38
2023-06-03T05:20:13.383Z,64.48
2023-06-03T05:22:40.419Z,63.64
2023-06-03T05:25:07.942Z,63.25
2023-06-03T05:27:34.902Z,62.47
2023-06-03T05:30:02.278Z,62.38
2023-06-03T05:32:29.401Z,62.53
2023-06-03T05:34:56.631Z,61.76
2023-06-03T05:37:23.693Z,60.17
2023-06-03T05:39:50.723Z,60.95
2023-06-03T05:42:17.317Z,61.16
2023-06-03T05:44:43.937Z,57.14
2023-06-03T05:47:10.726Z,58.94
2023-06-03T05:49:37.665Z,54.17
2023-06-03T05:52:04.887Z,55.51
2023-06-03T05:54:31.991Z,56.87
2023-06-03T05:56:59.719Z,54.61
2023-06-03T05:59:27.336Z,54.26
2023-06-03T06:01:54.248Z,54.51
2023-06-03T06:04:25.955Z,52.86
2023-06-03T06:06:53.231Z,48.23
2023-06-03T06:09:20.436Z,49.85
2023-06-03T06:11:47.372Z,51.43
2023-06-03T06:14:14.369Z,48.39
2023-06-03T06:16:41.829Z,49.12
2023-06-03T06:19:08.891Z,50.06
2023-06-03T06:21:35.772Z,49.11
2023-06-03T06:24:03.796Z,48.44
2023-06-03T06:26:31.270Z,47.74
2023-06-03T06:28:58.221Z,46.18
2023-06-03T06:31:25.451Z,45.97
2023-06-03T06:33:52.902Z,46.81
2023-06-03T06:36:43.757Z,43.18
2023-06-03T06:39:37.151Z,45.67
2023-06-03T06:42:14.547Z,46.24
2023-06-03T06:44:50.104Z,48.36
2023-06-03T06:47:24.931Z,42.42
2023-06-03T06:49:53.170Z,45.97
2023-06-03T06:52:20.823Z,45.68
2023-06-03T06:54:47.940Z,43.22
2023-06-03T06:57:25.286Z,42.15
2023-06-03T06:59:56.731Z,44.77
2023-06-03T07:02:23.999Z,45.35
2023-06-03T07:04:51.587Z,43.50
2023-06-03T07:07:19.800Z,43.34
2023-06-03T07:09:48.172Z,44.33
2023-06-03T07:12:18.137Z,46.03
2023-06-03T07:14:45.079Z,43.86
2023-06-03T07:17:12.085Z,43.88
2023-06-03T07:19:39.517Z,41.23
2023-06-03T07:22:07.656Z,43.70
2023-06-03T07:24:41.234Z,42.61
2023-06-03T07:27:09.526Z,42.57
2023-06-03T07:29:39.430Z,42.44
2023-06-03T07:32:10.173Z,41.38
2023-06-03T07:34:38.202Z,43.71
2023-06-03T07:37:12.946Z,43.61
2023-06-03T07:39:40.141Z,42.09
2023-06-03T07:42:22.900Z,43.83
2023-06-03T07:44:50.370Z,43.07
2023-06-03T07:47:19.539Z,42.87
2023-06-03T07:49:50.382Z,43.37
2023-06-03T07:52:22.095Z,42.85
2023-06-03T07:54:49.760Z,43.76
2023-06-03T07:57:17.367Z,42.95
2023-06-03T07:59:56.699Z,41.44
2023-06-03T08:02:23.619Z,43.52
2023-06-03T08:04:53.445Z,40.61
2023-06-03T08:07:20.870Z,43.21
2023-06-03T08:09:50.234Z,42.20
2023-06-03T08:12:24.946Z,39.26
2023-06-03T08:14:51.879Z,42.20
2023-06-03T08:17:26.221Z,41.27
2023-06-03T08:19:53.229Z,40.41
2023-06-03T08:22:52.510Z,39.92
2023-06-03T08:25:22.108Z,41.46
2023-06-03T08:27:49.675Z,41.16
2023-06-03T08:30:17.789Z,40.03
2023-06-03T08:32:46.714Z,41.55
2023-06-03T08:35:17.152Z,39.57
2023-06-03T08:37:47.275Z,38.57
2023-06-03T08:40:15.796Z,41.47
2023-06-03T08:42:48.330Z,37.42
2023-06-03T08:45:19.668Z,39.70
2023-06-03T08:48:13.431Z,39.29
2023-06-03T08:50:46.548Z,38.69
2023-06-03T08:53:13.891Z,36.82
2023-06-03T08:55:41.988Z,35.79
2023-06-03T08:58:34.585Z,37.72
2023-06-03T09:01:05.768Z,34.78
2023-06-03T09:03:33.650Z,38.73
2023-06-03T09:06:02.236Z,37.02
2023-06-03T09:08:29.588Z,33.79
2023-06-03T09:10:58.108Z,35.97
2023-06-03T09:13:27.738Z,38.45
2023-06-03T09:15:56.470Z,35.05
2023-06-03T09:18:23.937Z,34.91
2023-06-03T09:20:50.637Z,37.56
2023-06-03T09:23:17.777Z,35.47
2023-06-03T09:25:44.938Z,35.77
2023-06-03T09:28:12.000Z,34.37
2023-06-03T09:30:40.500Z,34.30
2023-06-03T09:33:08.263Z,36.76
2023-06-03T09:35:35.265Z,33.74
2023-06-03T09:38:06.079Z,35.06
2023-06-03T09:40:33.869Z,35.03
2023-06-03T09:43:01.124Z,36.38
2023-06-03T09:45:32.229Z,34.20
2023-06-03T09:48:03.488Z,30.68
2023-06-03T09:50:32.292Z,31.05
2023-06-03T09:53:00.122Z,35.83
2023-06-03T09:55:33.767Z,33.20
2023-06-03T09:58:07.083Z,34.67
2023-06-03T10:00:47.600Z,32.23
2023-06-03T10:03:15.870Z,32.92
2023-06-03T10:05:42.865Z,32.61
2023-06-03T10:08:09.589Z,31.58
2023-06-03T10:10:36.391Z,32.99
2023-06-03T10:13:19.805Z,32.43
2023-06-03T10:15:46.855Z,32.11
2023-06-03T10:18:13.608Z,31.98
2023-06-03T10:20:42.506Z,32.84
2023-06-03T10:23:11.194Z,32.85
2023-06-03T10:25:46.516Z,30.66
2023-06-03T10:28:15.013Z,30.32
2023-06-03T10:30:42.282Z,30.57
2023-06-03T10:33:10.229Z,31.45
2023-06-03T10:35:38.219Z,31.36
2023-06-03T10:38:07.161Z,31.39
2023-06-03T10:40:34.365Z,30.57
2023-06-03T10:43:01.019Z,29.64
2023-06-03T10:45:28.908Z,28.57
2023-06-03T10:48:13.915Z,29.67
2023-06-03T10:50:49.537Z,30.87
2023-06-03T10:53:47.408Z,27.42
2023-06-03T10:56:36.454Z,29.49
2023-06-03T10:59:05.804Z,29.25
2023-06-03T11:02:05.100Z,27.42
2023-06-03T11:04:34.638Z,28.16
2023-06-03T11:07:01.857Z,27.68
2023-06-03T11:09:31.127Z,26.92
2023-06-03T11:12:05.388Z,27.78
2023-06-03T11:14:32.907Z,27.97
2023-06-03T11:17:00.041Z,26.31
2023-06-03T11:19:47.290Z,26.02
2023-06-03T11:22:35.991Z,26.71
2023-06-03T11:25:02.838Z,25.96
2023-06-03T11:27:31.030Z,25.39
2023-06-03T11:30:00.644Z,27.05
2023-06-03T11:32:28.527Z,24.01
2023-06-03T11:35:04.992Z,26.84
2023-06-03T11:37:38.109Z,25.84
2023-06-03T11:40:23.907Z,28.46
2023-06-03T11:42:53.232Z,25.95
2023-06-03T11:45:19.786Z,27.14
2023-06-03T11:48:04.711Z,25.62
2023-06-03T11:50:34.445Z,26.13
2023-06-03T11:53:02.200Z,25.56
2023-06-03T11:55:30.839Z,24.19
2023-06-03T11:58:09.629Z,23.04
2023-06-03T12:00:36.569Z,23.00
2023-06-03T12:03:03.540Z,23.70
2023-06-03T12:05:30.364Z,25.45
2023-06-03T12:07:59.090Z,26.65
2023-06-03T12:10:26.156Z,28.02
2023-06-03T12:12:53.737Z,24.44
2023-06-03T12:15:21.588Z,25.21
2023-06-03T12:17:48.962Z,25.63
2023-06-03T12:20:29.778Z,25.11
2023-06-03T12:23:00.762Z,23.47
2023-06-03T12:25:28.664Z,25.14
2023-06-03T12:27:56.177Z,24.52
2023-06-03T12:30:34.641Z,23.32
2023-06-03T12:33:02.426Z,25.04
2023-06-03T12:35:30.096Z,24.14
2023-06-03T12:38:06.565Z,25.88
2023-06-03T12:40:34.154Z,25.80
2023-06-03T12:43:02.447Z,25.66
2023-06-03T12:45:29.373Z,26.77
2023-06-03T12:47:57.199Z,23.42
2023-06-03T12:50:32.070Z,23.80
2023-06-03T12:53:14.446Z,24.37
2023-06-03T12:55:41.825Z,25.05
2023-06-03T12:58:08.562Z,26.05
2023-06-03T13:00:35.236Z,26.29
2023-06-03T13:03:02.219Z,25.65
2023-06-03T13:05:29.014Z,25.42
2023-06-03T13:07:55.948Z,25.36
2023-06-03T13:10:22.597Z,24.61
2023-06-03T13:12:49.658Z,24.99
2023-06-03T13:15:18.094Z,24.96
2023-06-03T13:17:45.026Z,24.56
2023-06-03T13:20:12.418Z,26.57
2023-06-03T13:22:41.324Z,26.07
2023-06-03T13:25:08.954Z,25.03
2023-06-03T13:27:35.791Z,25.80
2023-06-03T13:30:02.613Z,24.91
2023-06-03T13:32:29.773Z,25.15
2023-06-03T13:34:57.109Z,25.08
2023-06-03T13:37:23.841Z,24.59
2023-06-03T13:39:50.442Z,25.99
2023-06-03T13:42:17.608Z,24.68
2023-06-03T13:44:44.476Z,25.62
2023-06-03T13:47:11.368Z,26.11
2023-06-03T13:49:38.034Z,25.18
2023-06-03T13:52:06.142Z,25.16
2023-06-03T13:54:33.108Z,24.96
2023-06-03T13:56:59.808Z,24.27
2023-06-03T13:59:26.469Z,25.53
2023-06-03T14:01:54.171Z,25.78
2023-06-03T14:04:24.019Z,24.55
2023-06-03T14:06:52.446Z,24.96
2023-06-03T14:09:19.037Z,26.25
2023-06-03T14:11:46.889Z,26.37
2023-06-03T14:14:13.734Z,24.55
2023-06-03T14:16:41.439Z,24.21
2023-06-03T14:19:08.364Z,24.02
2023-06-03T14:21:35.014Z,24.77
2023-06-03T14:24:01.936Z,25.11
2023-06-03T14:26:28.637Z,24.61
2023-06-03T14:28:55.209Z,23.33
2023-06-03T14:33:51.738Z,24.25
2023-06-03T14:36:18.346Z,22.75
2023-06-03T14:38:44.904Z,24.47
2023-06-03T14:41:11.646Z,23.80
2023-06-03T14:43:38.357Z,23.34
2023-06-03T14:46:05.544Z,21.85
2023-06-03T14:48:32.231Z,25.27
2023-06-03T14:50:58.860Z,24.39
2023-06-03T14:53:26.972Z,24.10
2023-06-03T14:55:53.564Z,24.69
2023-06-03T14:58:21.559Z,22.32
2023-06-03T15:00:48.160Z,23.48
2023-06-03T15:03:14.869Z,22.48
2023-06-03T15:05:41.516Z,22.87
2023-06-03T15:08:08.676Z,21.97
2023-06-03T15:10:35.827Z,22.12
2023-06-03T15:13:02.718Z,24.13
2023-06-03T15:15:29.413Z,24.59
2023-06-03T15:17:56.080Z,22.39
2023-06-03T15:20:23.003Z,21.50
2023-06-03T15:22:49.744Z,23.63
2023-06-03T15:25:16.343Z,23.81
2023-06-03T15:27:42.926Z,24.23
2023-06-03T15:30:09.983Z,23.49
2023-06-03T15:32:37.868Z,23.04
2023-06-03T15:35:05.480Z,24.19
2023-06-03T15:37:32.190Z,25.75
2023-06-03T15:39:59.336Z,23.97
2023-06-03T15:42:26.247Z,23.67
2023-06-03T15:44:52.874Z,22.54
2023-06-03T15:47:19.540Z,24.28
2023-06-03T15:49:46.182Z,24.29
2023-06-03T15:52:12.758Z,26.74
2023-06-03T15:54:39.343Z,23.65
2023-06-03T15:57:07.252Z,24.06
2023-06-03T15:59:34.017Z,25.14
2023-06-03T16:02:00.890Z,24.41
2023-06-03T16:04:29.191Z,23.48
2023-06-03T16:06:56.038Z,24.36
2023-06-03T16:09:22.674Z,23.96
2023-06-03T16:11:49.308Z,22.64
2023-06-03T16:14:16.085Z,24.61
2023-06-03T16:16:42.685Z,26.20
2023-06-03T16:19:09.331Z,26.08
2023-06-03T16:21:37.143Z,23.00
2023-06-03T16:24:04.247Z,22.08
2023-06-03T16:26:31.021Z,24.62
2023-06-03T16:28:57.597Z,24.95
2023-06-03T16:31:24.869Z,25.08
2023-06-03T16:33:54.074Z,26.25
2023-06-03T16:36:20.777Z,27.22
2023-06-03T16:38:47.433Z,25.42
2023-06-03T16:41:14.176Z,26.94
2023-06-03T16:43:40.816Z,26.28
2023-06-03T16:46:07.549Z,25.71
2023-06-03T16:48:34.206Z,25.52
2023-06-03T16:51:01.017Z,26.37
2023-06-03T16:53:27.671Z,25.58
2023-06-03T16:55:54.226Z,25.76
2023-06-03T16:58:20.776Z,26.25
2023-06-03T17:00:47.438Z,27.34
2023-06-03T17:03:14.092Z,25.85
2023-06-03T17:05:41.367Z,26.22
2023-06-03T17:08:07.942Z,26.75
2023-06-03T17:10:36.195Z,26.33
2023-06-03T17:13:02.722Z,25.57
2023-06-03T17:15:29.273Z,26.71
2023-06-03T17:17:55.916Z,27.44
2023-06-03T17:20:22.615Z,26.15
2023-06-03T17:22:49.278Z,26.60
2023-06-03T17:25:15.827Z,26.56
2023-06-03T17:27:42.589Z,26.38
2023-06-03T17:30:09.487Z,26.78
2023-06-03T17:32:36.282Z,27.36
2023-06-03T17:35:02.964Z,27.75
2023-06-03T17:37:29.499Z,27.94
2023-06-03T17:39:56.054Z,26.93
2023-06-03T17:42:22.633Z,26.94
2023-06-03T17:44:50.856Z,27.11
2023-06-03T17:47:17.552Z,27.27
2023-06-03T17:49:50.725Z,27.26
2023-06-03T17:52:17.363Z,28.16
2023-06-03T17:54:43.903Z,26.72
2023-06-03T17:57:11.420Z,27.22
2023-06-03T17:59:38.020Z,27.75
2023-06-03T18:02:05.030Z,27.85
2023-06-03T18:04:31.754Z,28.04
2023-06-03T18:06:58.368Z,28.26
2023-06-03T18:09:25.083Z,28.21
2023-06-03T18:11:51.746Z,29.23
2023-06-03T18:14:18.309Z,29.51
2023-06-03T18:16:44.882Z,29.24
2023-06-03T18:19:11.538Z,29.62
2023-06-03T18:21:41.512Z,29.29
2023-06-03T18:24:08.127Z,28.72
2023-06-03T18:26:34.783Z,28.95
2023-06-03T18:29:01.617Z,29.47
2023-06-03T18:31:28.226Z,28.93
2023-06-03T18:33:54.817Z,29.45
2023-06-03T18:36:21.464Z,29.43
2023-06-03T18:38:48.023Z,29.17
2023-06-03T18:41:14.670Z,29.36
2023-06-03T18:43:42.673Z,30.35
2023-06-03T18:46:09.598Z,30.32
2023-06-03T18:48:36.254Z,30.57
2023-06-03T18:51:02.831Z,31.21
2023-06-03T18:53:29.414Z,30.96
2023-06-03T18:55:56.060Z,31.44
2023-06-03T18:58:22.627Z,30.53
2023-06-03T19:00:51.796Z,31.79
2023-06-03T19:03:27.484Z,30.96
2023-06-03T19:05:55.612Z,31.38
2023-06-03T19:08:23.287Z,31.77
2023-06-03T19:10:50.466Z,31.12
2023-06-03T19:13:18.124Z,32.01
2023-06-03T19:15:45.473Z,31.72
2023-06-03T19:18:13.668Z,32.28
2023-06-03T19:20:40.522Z,32.15
2023-06-03T19:23:07.397Z,32.45
2023-06-03T19:25:35.132Z,32.36
2023-06-03T19:28:01.731Z,32.34
2023-06-03T19:30:28.353Z,32.45
2023-06-03T19:32:55.409Z,32.57
2023-06-03T19:35:22.283Z,33.01
2023-06-03T19:37:48.851Z,33.02
2023-06-03T19:40:15.583Z,34.04
2023-06-03T19:42:42.112Z,33.79
2023-06-03T19:45:09.011Z,33.04
2023-06-03T19:47:35.672Z,34.00
2023-06-03T19:50:02.432Z,35.11
2023-06-03T19:52:29.755Z,35.29
2023-06-03T19:54:57.255Z,35.11
2023-06-03T19:57:23.809Z,35.56
2023-06-03T19:59:50.480Z,36.00
2023-06-03T20:02:17.126Z,36.57
2023-06-03T20:04:43.792Z,36.35
2023-06-03T20:07:11.933Z,38.20
2023-06-03T20:09:38.527Z,38.77
2023-06-03T20:12:05.281Z,38.92
2023-06-03T20:14:31.823Z,39.40
2023-06-03T20:16:58.517Z,39.56
2023-06-03T20:19:25.765Z,39.38
2023-06-03T20:21:52.311Z,39.63
2023-06-03T20:24:18.867Z,39.34
2023-06-03T20:26:46.528Z,39.83
2023-06-03T20:29:13.298Z,40.29
2023-06-03T20:31:40.040Z,40.52
2023-06-03T20:34:06.627Z,40.87
2023-06-03T20:36:33.894Z,41.04
2023-06-03T20:39:00.608Z,41.90
2023-06-03T20:41:28.266Z,40.90
2023-06-03T20:43:55.695Z,41.16
2023-06-03T20:46:22.464Z,40.96
2023-06-03T20:48:49.041Z,41.93
2023-06-03T20:51:15.619Z,42.03
2023-06-03T20:53:42.184Z,41.56
2023-06-03T20:56:08.723Z,41.44
2023-06-03T20:58:35.288Z,42.65
2023-06-03T21:01:01.837Z,42.39
2023-06-03T21:03:28.548Z,41.86
2023-06-03T21:05:55.614Z,42.60
2023-06-03T21:08:22.251Z,42.03
2023-06-03T21:10:48.838Z,42.89
2023-06-03T21:13:16.205Z,42.48
2023-06-03T21:15:42.759Z,43.66
2023-06-03T21:18:09.349Z,43.11
2023-06-03T21:20:36.010Z,42.95
2023-06-03T21:23:02.591Z,42.93
2023-06-03T21:25:29.347Z,43.17
2023-06-03T21:27:55.912Z,43.71
2023-06-03T21:30:22.859Z,43.36
2023-06-03T21:32:49.535Z,43.61
2023-06-03T21:35:16.212Z,44.39
2023-06-03T21:37:42.781Z,43.76
2023-06-03T21:40:10.556Z,45.32
2023-06-03T21:42:37.127Z,46.14
2023-06-03T21:45:04.006Z,43.99
2023-06-03T21:47:30.580Z,44.18
2023-06-03T21:49:57.196Z,44.80
2023-06-03T21:52:23.752Z,43.96
2023-06-03T21:54:50.564Z,44.22
2023-06-03T21:57:17.120Z,45.22
2023-06-03T21:59:43.684Z,45.82
2023-06-03T22:02:10.418Z,45.48
2023-06-03T22:04:37.234Z,44.54
2023-06-03T22:07:03.892Z,45.20
2023-06-03T22:09:30.495Z,44.75
2023-06-03T22:11:57.077Z,44.77
2023-06-03T22:14:23.694Z,45.32
2023-06-03T22:16:50.346Z,45.99
2023-06-03T22:19:16.999Z,46.45
2023-06-03T22:21:44.511Z,46.03
2023-06-03T22:24:11.248Z,45.91
2023-06-03T22:26:37.803Z,46.41
2023-06-03T22:29:04.255Z,46.54
2023-06-03T22:31:30.899Z,46.89
2023-06-03T22:33:57.518Z,47.33
2023-06-03T22:36:24.014Z,47.12
2023-06-03T22:38:50.558Z,48.17
2023-06-03T22:41:17.119Z,47.17
2023-06-03T22:43:44.296Z,48.35
2023-06-03T22:46:11.059Z,47.53
2023-06-03T22:48:37.669Z,45.84
2023-06-03T22:51:07.415Z,47.80
2023-06-03T22:53:34.346Z,47.13
2023-06-03T22:56:02.375Z,47.42
2023-06-03T22:58:28.948Z,47.02
2023-06-03T23:00:55.482Z,47.55
2023-06-03T23:03:22.217Z,47.07
2023-06-03T23:05:48.987Z,46.98
2023-06-03T23:08:15.762Z,48.09
2023-06-03T23:10:42.411Z,48.55
2023-06-03T23:13:09.011Z,47.90
2023-06-03T23:15:35.717Z,47.76
2023-06-03T23:18:02.312Z,48.84
2023-06-03T23:20:29.807Z,49.09
2023-06-03T23:22:56.455Z,49.48
2023-06-03T23:25:23.095Z,50.09
2023-06-03T23:27:50.434Z,50.00
2023-06-03T23:30:17.240Z,50.16
2023-06-03T23:32:44.496Z,51.33
2023-06-03T23:35:11.896Z,51.50
2023-06-03T23:37:44.685Z,52.05
2023-06-03T23:40:12.395Z,50.69
2023-06-03T23:42:39.464Z,51.21
2023-06-03T23:45:06.740Z,51.00
2023-06-03T23:47:33.412Z,51.51
2023-06-03T23:50:01.879Z,51.63
2023-06-03T23:52:28.713Z,52.69
2023-06-03T23:54:56.553Z,53.13
2023-06-03T23:57:23.838Z,52.58
2023-06-03T23:59:50.602Z,52.02
